sensor_id;sensor_type;location;lat;lon;timestamp;P1;durP1;ratioP1;P2;durP2;ratioP2
64894;SDS011;51588;53.702;10.208;2024-01-16T00:01:03;1.90;;;1.43;;
64894;SDS011;51588;53.702;10.208;2024-01-16T00:03:31;1.80;;;1.40;;
64894;SDS011;51588;53.702;10.208;2024-01-16T00:05:58;1.40;;;1.30;;
64894;SDS011;51588;53.702;10.208;2024-01-16T00:08:32;2.63;;;1.30;;
64894;SDS011;51588;53.702;10.208;2024-01-16T00:11:04;1.80;;;1.40;;
64894;SDS011;51588;53.702;10.208;2024-01-16T00:13:32;1.83;;;1.33;;
64894;SDS011;51588;53.702;10.208;2024-01-16T00:16:05;2.60;;;1.40;;
64894;SDS011;51588;53.702;10.208;2024-01-16T00:18:31;2.27;;;1.30;;
64894;SDS011;51588;53.702;10.208;2024-01-16T00:21:05;1.90;;;1.50;;
64894;SDS011;51588;53.702;10.208;2024-01-16T00:23:31;1.93;;;1.30;;
64894;SDS011;51588;53.702;10.208;2024-01-16T00:26:00;1.53;;;1.30;;
64894;SDS011;51588;53.702;10.208;2024-01-16T00:28:33;1.30;;;1.10;;
64894;SDS011;51588;53.702;10.208;2024-01-16T00:31:00;2.20;;;1.37;;
64894;SDS011;51588;53.702;10.208;2024-01-16T00:33:26;3.00;;;1.20;;
64894;SDS011;51588;53.702;10.208;2024-01-16T00:35:53;2.03;;;1.40;;
64894;SDS011;51588;53.702;10.208;2024-01-16T00:38:19;1.93;;;1.40;;
64894;SDS011;51588;53.702;10.208;2024-01-16T00:40:53;1.87;;;1.40;;
64894;SDS011;51588;53.702;10.208;2024-01-16T00:43:22;1.50;;;1.37;;
64894;SDS011;51588;53.702;10.208;2024-01-16T00:45:53;2.27;;;1.30;;
64894;SDS011;51588;53.702;10.208;2024-01-16T00:48:22;2.60;;;1.60;;
64894;SDS011;51588;53.702;10.208;2024-01-16T00:50:49;2.00;;;1.20;;
64894;SDS011;51588;53.702;10.208;2024-01-16T00:53:15;1.53;;;1.40;;
64894;SDS011;51588;53.702;10.208;2024-01-16T00:55:42;1.47;;;1.20;;
64894;SDS011;51588;53.702;10.208;2024-01-16T00:58:14;2.23;;;1.30;;
64894;SDS011;51588;53.702;10.208;2024-01-16T01:00:40;1.87;;;1.40;;
64894;SDS011;51588;53.702;10.208;2024-01-16T01:03:08;3.10;;;1.30;;
64894;SDS011;51588;53.702;10.208;2024-01-16T01:05:34;1.63;;;1.30;;
64894;SDS011;51588;53.702;10.208;2024-01-16T01:08:01;2.27;;;1.30;;
64894;SDS011;51588;53.702;10.208;2024-01-16T01:10:27;1.30;;;1.20;;
64894;SDS011;51588;53.702;10.208;2024-01-16T01:13:00;1.73;;;1.20;;
64894;SDS011;51588;53.702;10.208;2024-01-16T01:15:29;1.67;;;1.40;;
64894;SDS011;51588;53.702;10.208;2024-01-16T01:17:56;1.80;;;1.20;;
64894;SDS011;51588;53.702;10.208;2024-01-16T01:20:29;2.20;;;1.43;;
64894;SDS011;51588;53.702;10.208;2024-01-16T01:22:55;1.40;;;1.30;;
64894;SDS011;51588;53.702;10.208;2024-01-16T01:25:22;2.33;;;1.20;;
64894;SDS011;51588;53.702;10.208;2024-01-16T01:27:54;1.23;;;1.13;;
64894;SDS011;51588;53.702;10.208;2024-01-16T01:30:21;1.27;;;1.17;;
64894;SDS011;51588;53.702;10.208;2024-01-16T01:32:47;2.30;;;1.20;;
64894;SDS011;51588;53.702;10.208;2024-01-16T01:35:13;1.40;;;1.10;;
64894;SDS011;51588;53.702;10.208;2024-01-16T01:37:41;2.13;;;1.40;;
64894;SDS011;51588;53.702;10.208;2024-01-16T01:40:11;1.37;;;1.20;;
64894;SDS011;51588;53.702;10.208;2024-01-16T01:42:40;1.70;;;1.30;;
64894;SDS011;51588;53.702;10.208;2024-01-16T01:45:07;1.47;;;1.20;;
64894;SDS011;51588;53.702;10.208;2024-01-16T01:47:34;2.33;;;1.23;;
64894;SDS011;51588;53.702;10.208;2024-01-16T01:50:00;1.47;;;1.30;;
64894;SDS011;51588;53.702;10.208;2024-01-16T01:52:28;1.73;;;1.40;;
64894;SDS011;51588;53.702;10.208;2024-01-16T01:54:56;1.43;;;1.20;;
64894;SDS011;51588;53.702;10.208;2024-01-16T01:57:23;1.90;;;1.63;;
64894;SDS011;51588;53.702;10.208;2024-01-16T01:59:52;3.80;;;1.80;;
64894;SDS011;51588;53.702;10.208;2024-01-16T02:02:24;1.50;;;1.30;;
64894;SDS011;51588;53.702;10.208;2024-01-16T02:04:51;2.10;;;1.30;;
64894;SDS011;51588;53.702;10.208;2024-01-16T02:07:17;1.70;;;1.10;;
64894;SDS011;51588;53.702;10.208;2024-01-16T02:09:47;1.50;;;1.10;;
64894;SDS011;51588;53.702;10.208;2024-01-16T02:12:15;1.40;;;1.10;;
64894;SDS011;51588;53.702;10.208;2024-01-16T02:14:42;2.37;;;1.40;;
64894;SDS011;51588;53.702;10.208;2024-01-16T02:17:08;2.20;;;1.30;;
64894;SDS011;51588;53.702;10.208;2024-01-16T02:19:35;1.60;;;1.30;;
64894;SDS011;51588;53.702;10.208;2024-01-16T02:22:03;1.70;;;1.40;;
64894;SDS011;51588;53.702;10.208;2024-01-16T02:24:31;1.30;;;1.10;;
64894;SDS011;51588;53.702;10.208;2024-01-16T02:26:58;1.27;;;1.13;;
64894;SDS011;51588;53.702;10.208;2024-01-16T02:29:24;2.80;;;1.30;;
64894;SDS011;51588;53.702;10.208;2024-01-16T02:31:50;1.90;;;1.10;;
64894;SDS011;51588;53.702;10.208;2024-01-16T02:34:17;1.40;;;1.30;;
64894;SDS011;51588;53.702;10.208;2024-01-16T02:36:43;1.60;;;1.20;;
64894;SDS011;51588;53.702;10.208;2024-01-16T02:39:10;1.50;;;1.10;;
64894;SDS011;51588;53.702;10.208;2024-01-16T02:41:38;1.80;;;1.20;;
64894;SDS011;51588;53.702;10.208;2024-01-16T02:44:04;1.67;;;1.10;;
64894;SDS011;51588;53.702;10.208;2024-01-16T02:46:30;1.40;;;1.00;;
64894;SDS011;51588;53.702;10.208;2024-01-16T02:48:57;1.37;;;1.17;;
64894;SDS011;51588;53.702;10.208;2024-01-16T02:51:24;1.37;;;1.13;;
64894;SDS011;51588;53.702;10.208;2024-01-16T02:53:50;1.30;;;1.20;;
64894;SDS011;51588;53.702;10.208;2024-01-16T02:56:16;1.20;;;1.10;;
64894;SDS011;51588;53.702;10.208;2024-01-16T02:58:44;1.60;;;1.33;;
64894;SDS011;51588;53.702;10.208;2024-01-16T03:01:11;1.80;;;1.20;;
64894;SDS011;51588;53.702;10.208;2024-01-16T03:03:37;1.73;;;1.10;;
64894;SDS011;51588;53.702;10.208;2024-01-16T03:06:04;1.20;;;1.00;;
64894;SDS011;51588;53.702;10.208;2024-01-16T03:08:31;1.43;;;1.03;;
64894;SDS011;51588;53.702;10.208;2024-01-16T03:10:57;1.40;;;1.20;;
64894;SDS011;51588;53.702;10.208;2024-01-16T03:13:23;1.20;;;1.00;;
64894;SDS011;51588;53.702;10.208;2024-01-16T03:15:51;1.50;;;1.10;;
64894;SDS011;51588;53.702;10.208;2024-01-16T03:18:17;1.30;;;1.20;;
64894;SDS011;51588;53.702;10.208;2024-01-16T03:20:44;1.77;;;1.10;;
64894;SDS011;51588;53.702;10.208;2024-01-16T03:23:10;1.20;;;1.10;;
64894;SDS011;51588;53.702;10.208;2024-01-16T03:25:36;1.67;;;1.20;;
64894;SDS011;51588;53.702;10.208;2024-01-16T03:28:04;1.53;;;1.10;;
64894;SDS011;51588;53.702;10.208;2024-01-16T03:30:32;1.30;;;1.00;;
64894;SDS011;51588;53.702;10.208;2024-01-16T03:33:00;2.03;;;1.20;;
64894;SDS011;51588;53.702;10.208;2024-01-16T03:35:30;1.60;;;1.17;;
64894;SDS011;51588;53.702;10.208;2024-01-16T03:37:57;1.20;;;1.10;;
64894;SDS011;51588;53.702;10.208;2024-01-16T03:40:23;1.93;;;1.17;;
64894;SDS011;51588;53.702;10.208;2024-01-16T03:42:50;1.10;;;1.00;;
64894;SDS011;51588;53.702;10.208;2024-01-16T03:45:16;1.40;;;1.20;;
64894;SDS011;51588;53.702;10.208;2024-01-16T03:47:43;1.63;;;1.27;;
64894;SDS011;51588;53.702;10.208;2024-01-16T03:50:11;1.50;;;1.10;;
64894;SDS011;51588;53.702;10.208;2024-01-16T03:52:37;1.37;;;1.27;;
64894;SDS011;51588;53.702;10.208;2024-01-16T03:55:04;2.17;;;1.10;;
64894;SDS011;51588;53.702;10.208;2024-01-16T03:57:33;1.10;;;0.90;;
64894;SDS011;51588;53.702;10.208;2024-01-16T04:00:00;1.50;;;1.33;;
64894;SDS011;51588;53.702;10.208;2024-01-16T04:02:26;1.40;;;1.20;;
64894;SDS011;51588;53.702;10.208;2024-01-16T04:04:53;1.57;;;1.10;;
64894;SDS011;51588;53.702;10.208;2024-01-16T04:07:23;1.30;;;1.10;;
64894;SDS011;51588;53.702;10.208;2024-01-16T04:09:51;1.60;;;1.10;;
64894;SDS011;51588;53.702;10.208;2024-01-16T04:12:22;1.10;;;1.00;;
64894;SDS011;51588;53.702;10.208;2024-01-16T04:14:49;2.43;;;1.23;;
64894;SDS011;51588;53.702;10.208;2024-01-16T04:17:25;1.43;;;1.10;;
64894;SDS011;51588;53.702;10.208;2024-01-16T04:19:51;1.33;;;1.00;;
64894;SDS011;51588;53.702;10.208;2024-01-16T04:22:17;1.60;;;1.40;;
64894;SDS011;51588;53.702;10.208;2024-01-16T04:24:45;1.73;;;1.20;;
64894;SDS011;51588;53.702;10.208;2024-01-16T04:27:12;1.10;;;1.00;;
64894;SDS011;51588;53.702;10.208;2024-01-16T04:29:39;1.30;;;1.10;;
64894;SDS011;51588;53.702;10.208;2024-01-16T04:32:05;1.10;;;1.00;;
64894;SDS011;51588;53.702;10.208;2024-01-16T04:34:31;2.03;;;1.10;;
64894;SDS011;51588;53.702;10.208;2024-01-16T04:37:05;1.40;;;1.00;;
64894;SDS011;51588;53.702;10.208;2024-01-16T04:39:31;1.40;;;1.10;;
64894;SDS011;51588;53.702;10.208;2024-01-16T04:41:59;1.23;;;1.10;;
64894;SDS011;51588;53.702;10.208;2024-01-16T04:44:25;1.40;;;1.30;;
64894;SDS011;51588;53.702;10.208;2024-01-16T04:46:52;1.40;;;1.20;;
64894;SDS011;51588;53.702;10.208;2024-01-16T04:49:24;1.53;;;1.10;;
64894;SDS011;51588;53.702;10.208;2024-01-16T04:51:51;1.17;;;1.00;;
64894;SDS011;51588;53.702;10.208;2024-01-16T04:54:17;1.20;;;1.10;;
64894;SDS011;51588;53.702;10.208;2024-01-16T04:56:46;1.40;;;1.20;;
64894;SDS011;51588;53.702;10.208;2024-01-16T04:59:16;1.33;;;1.13;;
64894;SDS011;51588;53.702;10.208;2024-01-16T05:01:45;1.77;;;1.07;;
64894;SDS011;51588;53.702;10.208;2024-01-16T05:04:11;1.47;;;1.23;;
64894;SDS011;51588;53.702;10.208;2024-01-16T05:06:41;1.30;;;1.20;;
64894;SDS011;51588;53.702;10.208;2024-01-16T05:09:07;1.40;;;1.10;;
64894;SDS011;51588;53.702;10.208;2024-01-16T05:11:34;1.30;;;1.20;;
64894;SDS011;51588;53.702;10.208;2024-01-16T05:14:00;1.50;;;1.00;;
64894;SDS011;51588;53.702;10.208;2024-01-16T05:16:28;1.30;;;1.07;;
64894;SDS011;51588;53.702;10.208;2024-01-16T05:18:55;1.63;;;1.20;;
64894;SDS011;51588;53.702;10.208;2024-01-16T05:21:27;1.10;;;1.00;;
64894;SDS011;51588;53.702;10.208;2024-01-16T05:23:53;2.27;;;1.10;;
64894;SDS011;51588;53.702;10.208;2024-01-16T05:26:20;1.63;;;1.10;;
64894;SDS011;51588;53.702;10.208;2024-01-16T05:28:47;1.40;;;1.00;;
64894;SDS011;51588;53.702;10.208;2024-01-16T05:31:13;1.20;;;1.00;;
64894;SDS011;51588;53.702;10.208;2024-01-16T05:33:44;1.50;;;0.90;;
64894;SDS011;51588;53.702;10.208;2024-01-16T05:36:10;1.10;;;1.00;;
64894;SDS011;51588;53.702;10.208;2024-01-16T05:38:37;1.13;;;0.93;;
64894;SDS011;51588;53.702;10.208;2024-01-16T05:41:06;1.23;;;1.03;;
64894;SDS011;51588;53.702;10.208;2024-01-16T05:43:33;1.10;;;1.00;;
64894;SDS011;51588;53.702;10.208;2024-01-16T05:46:02;1.47;;;1.13;;
64894;SDS011;51588;53.702;10.208;2024-01-16T05:48:29;1.20;;;1.03;;
64894;SDS011;51588;53.702;10.208;2024-01-16T05:50:56;1.67;;;1.00;;
64894;SDS011;51588;53.702;10.208;2024-01-16T05:53:26;1.60;;;1.00;;
64894;SDS011;51588;53.702;10.208;2024-01-16T05:55:52;1.33;;;1.10;;
64894;SDS011;51588;53.702;10.208;2024-01-16T05:58:19;1.47;;;1.03;;
64894;SDS011;51588;53.702;10.208;2024-01-16T06:00:51;1.20;;;1.00;;
64894;SDS011;51588;53.702;10.208;2024-01-16T06:03:17;2.03;;;1.60;;
64894;SDS011;51588;53.702;10.208;2024-01-16T06:05:44;1.20;;;1.00;;
64894;SDS011;51588;53.702;10.208;2024-01-16T06:08:11;3.00;;;1.43;;
64894;SDS011;51588;53.702;10.208;2024-01-16T06:10:38;6.70;;;1.70;;
64894;SDS011;51588;53.702;10.208;2024-01-16T06:13:04;10.83;;;2.37;;
64894;SDS011;51588;53.702;10.208;2024-01-16T06:15:31;31.10;;;6.60;;
64894;SDS011;51588;53.702;10.208;2024-01-16T06:17:58;17.90;;;3.73;;
64894;SDS011;51588;53.702;10.208;2024-01-16T06:20:27;11.80;;;3.13;;
64894;SDS011;51588;53.702;10.208;2024-01-16T06:22:54;10.50;;;3.03;;
64894;SDS011;51588;53.702;10.208;2024-01-16T06:25:28;9.33;;;3.00;;
64894;SDS011;51588;53.702;10.208;2024-01-16T06:28:00;6.63;;;2.90;;
64894;SDS011;51588;53.702;10.208;2024-01-16T06:30:27;11.00;;;3.40;;
64894;SDS011;51588;53.702;10.208;2024-01-16T06:32:55;18.47;;;3.80;;
64894;SDS011;51588;53.702;10.208;2024-01-16T06:35:27;13.50;;;3.87;;
64894;SDS011;51588;53.702;10.208;2024-01-16T06:37:54;19.43;;;3.83;;
64894;SDS011;51588;53.702;10.208;2024-01-16T06:40:20;15.20;;;3.53;;
64894;SDS011;51588;53.702;10.208;2024-01-16T06:42:51;11.97;;;3.80;;
64894;SDS011;51588;53.702;10.208;2024-01-16T06:45:17;11.23;;;3.23;;
64894;SDS011;51588;53.702;10.208;2024-01-16T06:47:47;14.60;;;3.13;;
64894;SDS011;51588;53.702;10.208;2024-01-16T06:50:13;10.57;;;2.93;;
64894;SDS011;51588;53.702;10.208;2024-01-16T06:52:44;8.80;;;2.60;;
64894;SDS011;51588;53.702;10.208;2024-01-16T06:55:11;11.67;;;3.07;;
64894;SDS011;51588;53.702;10.208;2024-01-16T06:57:43;8.30;;;3.10;;
64894;SDS011;51588;53.702;10.208;2024-01-16T07:00:14;14.00;;;3.23;;
64894;SDS011;51588;53.702;10.208;2024-01-16T07:02:40;11.47;;;2.73;;
64894;SDS011;51588;53.702;10.208;2024-01-16T07:05:10;7.50;;;2.40;;
64894;SDS011;51588;53.702;10.208;2024-01-16T07:07:40;12.57;;;2.63;;
64894;SDS011;51588;53.702;10.208;2024-01-16T07:10:07;8.80;;;2.60;;
64894;SDS011;51588;53.702;10.208;2024-01-16T07:12:41;9.53;;;2.73;;
64894;SDS011;51588;53.702;10.208;2024-01-16T07:15:07;6.93;;;2.60;;
64894;SDS011;51588;53.702;10.208;2024-01-16T07:17:35;7.53;;;2.70;;
64894;SDS011;51588;53.702;10.208;2024-01-16T07:20:04;8.53;;;2.27;;
64894;SDS011;51588;53.702;10.208;2024-01-16T07:22:31;7.93;;;2.50;;
64894;SDS011;51588;53.702;10.208;2024-01-16T07:24:57;6.77;;;1.93;;
64894;SDS011;51588;53.702;10.208;2024-01-16T07:27:24;4.20;;;2.10;;
64894;SDS011;51588;53.702;10.208;2024-01-16T07:29:53;5.17;;;2.27;;
64894;SDS011;51588;53.702;10.208;2024-01-16T07:32:22;5.70;;;2.30;;
64894;SDS011;51588;53.702;10.208;2024-01-16T07:34:50;3.83;;;2.00;;
64894;SDS011;51588;53.702;10.208;2024-01-16T07:37:16;6.77;;;2.17;;
64894;SDS011;51588;53.702;10.208;2024-01-16T07:39:43;9.93;;;2.90;;
64894;SDS011;51588;53.702;10.208;2024-01-16T07:42:08;4.87;;;2.07;;
64894;SDS011;51588;53.702;10.208;2024-01-16T07:44:34;6.73;;;2.20;;
64894;SDS011;51588;53.702;10.208;2024-01-16T07:47:01;7.90;;;1.83;;
64894;SDS011;51588;53.702;10.208;2024-01-16T07:49:27;6.17;;;2.10;;
64894;SDS011;51588;53.702;10.208;2024-01-16T07:52:01;4.37;;;1.73;;
64894;SDS011;51588;53.702;10.208;2024-01-16T07:54:27;5.30;;;2.17;;
64894;SDS011;51588;53.702;10.208;2024-01-16T07:56:56;6.03;;;2.37;;
64894;SDS011;51588;53.702;10.208;2024-01-16T07:59:23;8.10;;;2.07;;
64894;SDS011;51588;53.702;10.208;2024-01-16T08:01:52;5.77;;;1.90;;
64894;SDS011;51588;53.702;10.208;2024-01-16T08:04:22;3.77;;;1.80;;
64894;SDS011;51588;53.702;10.208;2024-01-16T08:06:49;3.57;;;1.77;;
64894;SDS011;51588;53.702;10.208;2024-01-16T08:09:17;5.13;;;1.70;;
64894;SDS011;51588;53.702;10.208;2024-01-16T08:11:51;2.73;;;1.70;;
64894;SDS011;51588;53.702;10.208;2024-01-16T08:14:17;4.73;;;1.57;;
64894;SDS011;51588;53.702;10.208;2024-01-16T08:16:46;3.83;;;1.90;;
64894;SDS011;51588;53.702;10.208;2024-01-16T08:19:13;3.53;;;1.87;;
64894;SDS011;51588;53.702;10.208;2024-01-16T08:21:39;5.00;;;1.97;;
64894;SDS011;51588;53.702;10.208;2024-01-16T08:24:06;4.17;;;2.00;;
64894;SDS011;51588;53.702;10.208;2024-01-16T08:26:39;4.03;;;1.63;;
64894;SDS011;51588;53.702;10.208;2024-01-16T08:29:06;3.80;;;1.87;;
64894;SDS011;51588;53.702;10.208;2024-01-16T08:31:32;2.40;;;1.47;;
64894;SDS011;51588;53.702;10.208;2024-01-16T08:33:59;2.97;;;1.43;;
64894;SDS011;51588;53.702;10.208;2024-01-16T08:36:25;5.63;;;1.90;;
64894;SDS011;51588;53.702;10.208;2024-01-16T08:38:51;5.13;;;1.90;;
64894;SDS011;51588;53.702;10.208;2024-01-16T08:41:25;6.73;;;1.60;;
64894;SDS011;51588;53.702;10.208;2024-01-16T08:43:55;6.17;;;1.50;;
64894;SDS011;51588;53.702;10.208;2024-01-16T08:46:29;5.73;;;1.70;;
64894;SDS011;51588;53.702;10.208;2024-01-16T08:48:56;2.73;;;1.40;;
64894;SDS011;51588;53.702;10.208;2024-01-16T08:51:32;5.17;;;1.60;;
64894;SDS011;51588;53.702;10.208;2024-01-16T08:54:00;3.63;;;1.63;;
64894;SDS011;51588;53.702;10.208;2024-01-16T08:56:27;3.17;;;1.63;;
64894;SDS011;51588;53.702;10.208;2024-01-16T08:58:54;2.17;;;1.43;;
64894;SDS011;51588;53.702;10.208;2024-01-16T09:01:21;3.70;;;1.50;;
64894;SDS011;51588;53.702;10.208;2024-01-16T09:03:50;2.40;;;1.67;;
64894;SDS011;51588;53.702;10.208;2024-01-16T09:06:17;2.80;;;1.40;;
64894;SDS011;51588;53.702;10.208;2024-01-16T09:08:44;2.80;;;1.43;;
64894;SDS011;51588;53.702;10.208;2024-01-16T09:11:13;6.03;;;1.50;;
64894;SDS011;51588;53.702;10.208;2024-01-16T09:13:42;3.00;;;1.47;;
64894;SDS011;51588;53.702;10.208;2024-01-16T09:16:11;3.40;;;1.47;;
64894;SDS011;51588;53.702;10.208;2024-01-16T09:18:37;2.47;;;1.30;;
64894;SDS011;51588;53.702;10.208;2024-01-16T09:21:03;2.70;;;1.40;;
64894;SDS011;51588;53.702;10.208;2024-01-16T09:23:39;1.93;;;1.20;;
64894;SDS011;51588;53.702;10.208;2024-01-16T09:26:05;3.00;;;1.60;;
64894;SDS011;51588;53.702;10.208;2024-01-16T09:28:35;2.43;;;1.33;;
64894;SDS011;51588;53.702;10.208;2024-01-16T09:31:07;2.00;;;1.40;;
64894;SDS011;51588;53.702;10.208;2024-01-16T09:33:35;1.57;;;1.17;;
64894;SDS011;51588;53.702;10.208;2024-01-16T09:36:04;1.63;;;1.10;;
64894;SDS011;51588;53.702;10.208;2024-01-16T09:38:31;1.97;;;1.40;;
64894;SDS011;51588;53.702;10.208;2024-01-16T09:40:57;3.10;;;1.40;;
64894;SDS011;51588;53.702;10.208;2024-01-16T09:43:24;2.83;;;1.50;;
64894;SDS011;51588;53.702;10.208;2024-01-16T09:45:51;2.43;;;1.30;;
64894;SDS011;51588;53.702;10.208;2024-01-16T09:48:20;2.40;;;1.40;;
64894;SDS011;51588;53.702;10.208;2024-01-16T09:50:48;1.27;;;1.17;;
64894;SDS011;51588;53.702;10.208;2024-01-16T09:53:14;2.53;;;1.53;;
64894;SDS011;51588;53.702;10.208;2024-01-16T09:55:41;3.83;;;1.40;;
64894;SDS011;51588;53.702;10.208;2024-01-16T09:58:07;2.90;;;1.10;;
64894;SDS011;51588;53.702;10.208;2024-01-16T10:00:40;1.70;;;1.10;;
64894;SDS011;51588;53.702;10.208;2024-01-16T10:03:08;1.63;;;1.00;;
64894;SDS011;51588;53.702;10.208;2024-01-16T10:05:40;3.10;;;1.30;;
64894;SDS011;51588;53.702;10.208;2024-01-16T10:08:08;1.50;;;1.03;;
64894;SDS011;51588;53.702;10.208;2024-01-16T10:10:35;1.47;;;1.30;;
64894;SDS011;51588;53.702;10.208;2024-01-16T10:13:01;2.37;;;1.20;;
64894;SDS011;51588;53.702;10.208;2024-01-16T10:15:27;2.67;;;1.20;;
64894;SDS011;51588;53.702;10.208;2024-01-16T10:17:54;2.80;;;1.30;;
64894;SDS011;51588;53.702;10.208;2024-01-16T10:20:31;10.83;;;1.63;;
64894;SDS011;51588;53.702;10.208;2024-01-16T10:22:57;1.63;;;1.00;;
64894;SDS011;51588;53.702;10.208;2024-01-16T10:25:26;2.90;;;1.30;;
64894;SDS011;51588;53.702;10.208;2024-01-16T10:28:02;3.07;;;1.23;;
64894;SDS011;51588;53.702;10.208;2024-01-16T10:30:28;1.30;;;1.07;;
64894;SDS011;51588;53.702;10.208;2024-01-16T10:33:11;1.67;;;1.20;;
64894;SDS011;51588;53.702;10.208;2024-01-16T10:35:41;2.00;;;1.10;;
64894;SDS011;51588;53.702;10.208;2024-01-16T10:38:07;1.60;;;1.10;;
64894;SDS011;51588;53.702;10.208;2024-01-16T10:40:38;2.57;;;1.13;;
64894;SDS011;51588;53.702;10.208;2024-01-16T10:43:05;1.80;;;1.10;;
64894;SDS011;51588;53.702;10.208;2024-01-16T10:45:32;3.07;;;1.17;;
64894;SDS011;51588;53.702;10.208;2024-01-16T10:48:01;2.80;;;1.30;;
64894;SDS011;51588;53.702;10.208;2024-01-16T10:50:28;2.10;;;1.17;;
64894;SDS011;51588;53.702;10.208;2024-01-16T10:52:55;1.87;;;1.23;;
64894;SDS011;51588;53.702;10.208;2024-01-16T10:55:22;10.13;;;2.27;;
64894;SDS011;51588;53.702;10.208;2024-01-16T10:57:50;3.57;;;1.30;;
64894;SDS011;51588;53.702;10.208;2024-01-16T11:00:18;2.87;;;1.27;;
64894;SDS011;51588;53.702;10.208;2024-01-16T11:02:48;1.50;;;1.13;;
64894;SDS011;51588;53.702;10.208;2024-01-16T11:05:15;8.27;;;1.77;;
64894;SDS011;51588;53.702;10.208;2024-01-16T11:07:42;6.73;;;1.30;;
64894;SDS011;51588;53.702;10.208;2024-01-16T11:10:09;5.47;;;1.30;;
64894;SDS011;51588;53.702;10.208;2024-01-16T11:12:37;3.97;;;1.27;;
64894;SDS011;51588;53.702;10.208;2024-01-16T11:15:06;9.63;;;1.37;;
64894;SDS011;51588;53.702;10.208;2024-01-16T11:17:36;3.73;;;1.20;;
64894;SDS011;51588;53.702;10.208;2024-01-16T11:20:03;5.73;;;1.27;;
64894;SDS011;51588;53.702;10.208;2024-01-16T11:22:31;3.83;;;1.40;;
64894;SDS011;51588;53.702;10.208;2024-01-16T11:25:07;3.70;;;1.47;;
64894;SDS011;51588;53.702;10.208;2024-01-16T11:27:34;3.63;;;1.50;;
64894;SDS011;51588;53.702;10.208;2024-01-16T11:30:00;3.53;;;1.43;;
64894;SDS011;51588;53.702;10.208;2024-01-16T11:32:37;4.13;;;1.10;;
64894;SDS011;51588;53.702;10.208;2024-01-16T11:35:05;6.20;;;1.50;;
64894;SDS011;51588;53.702;10.208;2024-01-16T11:37:41;5.77;;;1.30;;
64894;SDS011;51588;53.702;10.208;2024-01-16T11:40:20;3.77;;;1.23;;
64894;SDS011;51588;53.702;10.208;2024-01-16T11:42:46;3.67;;;1.40;;
64894;SDS011;51588;53.702;10.208;2024-01-16T11:48:11;2.03;;;1.30;;
64894;SDS011;51588;53.702;10.208;2024-01-16T11:50:38;4.70;;;1.33;;
64894;SDS011;51588;53.702;10.208;2024-01-16T11:53:04;7.57;;;1.50;;
64894;SDS011;51588;53.702;10.208;2024-01-16T11:55:34;1.53;;;1.20;;
64894;SDS011;51588;53.702;10.208;2024-01-16T11:58:06;3.03;;;1.60;;
64894;SDS011;51588;53.702;10.208;2024-01-16T12:00:40;1.60;;;1.20;;
64894;SDS011;51588;53.702;10.208;2024-01-16T12:03:12;2.90;;;1.00;;
64894;SDS011;51588;53.702;10.208;2024-01-16T12:05:44;1.90;;;1.23;;
64894;SDS011;51588;53.702;10.208;2024-01-16T12:08:10;4.70;;;1.50;;
64894;SDS011;51588;53.702;10.208;2024-01-16T12:10:45;1.30;;;1.00;;
64894;SDS011;51588;53.702;10.208;2024-01-16T12:13:12;1.60;;;1.10;;
64894;SDS011;51588;53.702;10.208;2024-01-16T12:15:38;2.00;;;1.07;;
64894;SDS011;51588;53.702;10.208;2024-01-16T12:18:07;1.93;;;1.10;;
64894;SDS011;51588;53.702;10.208;2024-01-16T12:20:35;2.80;;;1.23;;
64894;SDS011;51588;53.702;10.208;2024-01-16T12:23:02;3.00;;;1.17;;
64894;SDS011;51588;53.702;10.208;2024-01-16T12:25:29;1.67;;;1.10;;
64894;SDS011;51588;53.702;10.208;2024-01-16T12:27:56;2.50;;;1.20;;
64894;SDS011;51588;53.702;10.208;2024-01-16T12:30:24;2.17;;;1.10;;
64894;SDS011;51588;53.702;10.208;2024-01-16T12:32:50;3.53;;;1.07;;
64894;SDS011;51588;53.702;10.208;2024-01-16T12:35:24;2.43;;;1.10;;
64894;SDS011;51588;53.702;10.208;2024-01-16T12:38:04;2.93;;;1.20;;
64894;SDS011;51588;53.702;10.208;2024-01-16T12:40:34;4.27;;;1.20;;
64894;SDS011;51588;53.702;10.208;2024-01-16T12:43:01;2.77;;;1.20;;
64894;SDS011;51588;53.702;10.208;2024-01-16T12:45:31;2.20;;;0.93;;
64894;SDS011;51588;53.702;10.208;2024-01-16T12:48:00;2.27;;;1.10;;
64894;SDS011;51588;53.702;10.208;2024-01-16T12:50:27;2.03;;;1.00;;
64894;SDS011;51588;53.702;10.208;2024-01-16T12:53:05;2.10;;;1.20;;
64894;SDS011;51588;53.702;10.208;2024-01-16T12:55:32;3.80;;;1.10;;
64894;SDS011;51588;53.702;10.208;2024-01-16T12:58:16;2.27;;;1.30;;
64894;SDS011;51588;53.702;10.208;2024-01-16T13:00:42;2.33;;;1.10;;
64894;SDS011;51588;53.702;10.208;2024-01-16T13:03:14;2.00;;;1.30;;
64894;SDS011;51588;53.702;10.208;2024-01-16T13:05:41;3.20;;;1.70;;
64894;SDS011;51588;53.702;10.208;2024-01-16T13:08:09;2.20;;;1.30;;
64894;SDS011;51588;53.702;10.208;2024-01-16T13:10:38;3.27;;;1.60;;
64894;SDS011;51588;53.702;10.208;2024-01-16T13:13:11;4.07;;;1.30;;
64894;SDS011;51588;53.702;10.208;2024-01-16T13:15:41;5.60;;;1.50;;
64894;SDS011;51588;53.702;10.208;2024-01-16T13:18:19;6.73;;;1.60;;
64894;SDS011;51588;53.702;10.208;2024-01-16T13:20:47;6.47;;;1.77;;
64894;SDS011;51588;53.702;10.208;2024-01-16T13:23:15;18.93;;;1.87;;
64894;SDS011;51588;53.702;10.208;2024-01-16T13:25:42;3.50;;;1.50;;
64894;SDS011;51588;53.702;10.208;2024-01-16T13:28:08;3.10;;;1.20;;
64894;SDS011;51588;53.702;10.208;2024-01-16T13:30:35;1.97;;;1.27;;
64894;SDS011;51588;53.702;10.208;2024-01-16T13:33:01;6.07;;;1.20;;
64894;SDS011;51588;53.702;10.208;2024-01-16T13:35:29;2.70;;;1.17;;
64894;SDS011;51588;53.702;10.208;2024-01-16T13:38:03;2.20;;;1.10;;
64894;SDS011;51588;53.702;10.208;2024-01-16T13:40:34;2.10;;;1.33;;
64894;SDS011;51588;53.702;10.208;2024-01-16T13:43:05;2.43;;;1.33;;
64894;SDS011;51588;53.702;10.208;2024-01-16T13:45:35;3.77;;;1.33;;
64894;SDS011;51588;53.702;10.208;2024-01-16T13:48:02;3.50;;;1.20;;
64894;SDS011;51588;53.702;10.208;2024-01-16T13:50:32;3.00;;;1.30;;
64894;SDS011;51588;53.702;10.208;2024-01-16T13:52:59;2.10;;;1.13;;
64894;SDS011;51588;53.702;10.208;2024-01-16T13:55:28;1.90;;;1.10;;
64894;SDS011;51588;53.702;10.208;2024-01-16T13:58:02;2.73;;;1.27;;
64894;SDS011;51588;53.702;10.208;2024-01-16T14:00:34;2.13;;;1.40;;
64894;SDS011;51588;53.702;10.208;2024-01-16T14:03:03;3.90;;;1.23;;
64894;SDS011;51588;53.702;10.208;2024-01-16T14:05:37;1.93;;;1.30;;
64894;SDS011;51588;53.702;10.208;2024-01-16T14:08:07;7.40;;;1.33;;
64894;SDS011;51588;53.702;10.208;2024-01-16T14:10:37;2.60;;;1.23;;
64894;SDS011;51588;53.702;10.208;2024-01-16T14:13:04;2.07;;;1.20;;
64894;SDS011;51588;53.702;10.208;2024-01-16T14:15:34;5.90;;;1.80;;
64894;SDS011;51588;53.702;10.208;2024-01-16T14:18:01;2.00;;;1.20;;
64894;SDS011;51588;53.702;10.208;2024-01-16T14:20:28;1.50;;;1.20;;
64894;SDS011;51588;53.702;10.208;2024-01-16T14:22:55;2.20;;;1.07;;
64894;SDS011;51588;53.702;10.208;2024-01-16T14:25:24;2.40;;;1.43;;
64894;SDS011;51588;53.702;10.208;2024-01-16T14:27:55;2.83;;;1.27;;
64894;SDS011;51588;53.702;10.208;2024-01-16T14:30:24;2.00;;;1.40;;
64894;SDS011;51588;53.702;10.208;2024-01-16T14:32:51;1.77;;;1.27;;
64894;SDS011;51588;53.702;10.208;2024-01-16T14:35:18;3.40;;;1.20;;
64894;SDS011;51588;53.702;10.208;2024-01-16T14:37:47;1.90;;;1.20;;
64894;SDS011;51588;53.702;10.208;2024-01-16T14:40:14;3.60;;;1.10;;
64894;SDS011;51588;53.702;10.208;2024-01-16T14:42:45;2.90;;;1.27;;